sensor_id;sensor_type;location;lat;lon;timestamp;P1;durP1;ratioP1;P2;durP2;ratioP2
19919;SDS011;10122;50.074;19.920;2023-05-07T00:00:01;16.50;;;11.98;;
19919;SDS011;10122;50.074;19.920;2023-05-07T00:02:28;17.60;;;11.75;;
19919;SDS011;10122;50.074;19.920;2023-05-07T00:04:54;17.27;;;10.80;;
19919;SDS011;10122;50.074;19.920;2023-05-07T00:07:21;16.27;;;10.90;;
19919;SDS011;10122;50.074;19.920;2023-05-07T00:09:47;16.27;;;10.80;;
19919;SDS011;10122;50.074;19.920;2023-05-07T00:12:13;15.95;;;10.30;;
19919;SDS011;10122;50.074;19.920;2023-05-07T00:14:39;15.45;;;10.15;;
19919;SDS011;10122;50.074;19.920;2023-05-07T00:17:05;14.88;;;10.82;;
19919;SDS011;10122;50.074;19.920;2023-05-07T00:19:31;16.73;;;11.50;;
19919;SDS011;10122;50.074;19.920;2023-05-07T00:21:57;15.05;;;9.80;;
19919;SDS011;10122;50.074;19.920;2023-05-07T00:24:23;14.75;;;9.85;;
19919;SDS011;10122;50.074;19.920;2023-05-07T00:26:49;15.43;;;10.13;;
19919;SDS011;10122;50.074;19.920;2023-05-07T00:29:16;14.40;;;9.73;;
19919;SDS011;10122;50.074;19.920;2023-05-07T00:31:42;13.38;;;9.80;;
19919;SDS011;10122;50.074;19.920;2023-05-07T00:34:08;16.13;;;10.32;;
19919;SDS011;10122;50.074;19.920;2023-05-07T00:36:34;15.68;;;10.00;;
19919;SDS011;10122;50.074;19.920;2023-05-07T00:39:00;15.85;;;10.15;;
19919;SDS011;10122;50.074;19.920;2023-05-07T00:41:28;14.25;;;10.00;;
19919;SDS011;10122;50.074;19.920;2023-05-07T00:43:55;14.48;;;10.90;;
19919;SDS011;10122;50.074;19.920;2023-05-07T00:46:22;15.40;;;10.38;;
19919;SDS011;10122;50.074;19.920;2023-05-07T00:48:49;16.63;;;10.57;;
19919;SDS011;10122;50.074;19.920;2023-05-07T00:51:16;16.45;;;10.68;;
19919;SDS011;10122;50.074;19.920;2023-05-07T00:53:43;17.52;;;11.05;;
19919;SDS011;10122;50.074;19.920;2023-05-07T00:56:09;14.25;;;11.02;;
19919;SDS011;10122;50.074;19.920;2023-05-07T00:58:36;17.90;;;11.57;;
19919;SDS011;10122;50.074;19.920;2023-05-07T01:01:02;16.00;;;11.02;;
19919;SDS011;10122;50.074;19.920;2023-05-07T01:03:28;16.42;;;10.48;;
19919;SDS011;10122;50.074;19.920;2023-05-07T01:05:54;15.85;;;11.00;;
19919;SDS011;10122;50.074;19.920;2023-05-07T01:08:22;16.85;;;10.40;;
19919;SDS011;10122;50.074;19.920;2023-05-07T01:10:51;17.13;;;11.60;;
19919;SDS011;10122;50.074;19.920;2023-05-07T01:13:18;16.73;;;11.18;;
19919;SDS011;10122;50.074;19.920;2023-05-07T01:15:45;14.40;;;9.43;;
19919;SDS011;10122;50.074;19.920;2023-05-07T01:18:11;17.48;;;11.82;;
19919;SDS011;10122;50.074;19.920;2023-05-07T01:20:37;15.07;;;10.63;;
19919;SDS011;10122;50.074;19.920;2023-05-07T01:23:03;16.20;;;11.38;;
19919;SDS011;10122;50.074;19.920;2023-05-07T01:25:30;15.82;;;10.45;;
19919;SDS011;10122;50.074;19.920;2023-05-07T01:27:56;15.13;;;10.75;;
19919;SDS011;10122;50.074;19.920;2023-05-07T01:30:25;14.48;;;10.50;;
19919;SDS011;10122;50.074;19.920;2023-05-07T01:32:52;17.52;;;10.65;;
19919;SDS011;10122;50.074;19.920;2023-05-07T01:35:19;17.25;;;11.50;;
19919;SDS011;10122;50.074;19.920;2023-05-07T01:37:46;18.17;;;11.35;;
19919;SDS011;10122;50.074;19.920;2023-05-07T01:40:12;18.58;;;11.80;;
19919;SDS011;10122;50.074;19.920;2023-05-07T01:42:39;19.77;;;13.60;;
19919;SDS011;10122;50.074;19.920;2023-05-07T01:45:06;21.63;;;14.75;;
19919;SDS011;10122;50.074;19.920;2023-05-07T01:47:32;20.27;;;13.82;;
19919;SDS011;10122;50.074;19.920;2023-05-07T01:49:58;22.00;;;14.23;;
19919;SDS011;10122;50.074;19.920;2023-05-07T01:52:24;20.73;;;13.68;;
19919;SDS011;10122;50.074;19.920;2023-05-07T01:54:50;18.33;;;13.15;;
19919;SDS011;10122;50.074;19.920;2023-05-07T01:57:16;20.50;;;13.85;;
19919;SDS011;10122;50.074;19.920;2023-05-07T01:59:42;19.80;;;13.15;;
19919;SDS011;10122;50.074;19.920;2023-05-07T02:02:08;18.42;;;12.18;;
19919;SDS011;10122;50.074;19.920;2023-05-07T02:04:34;19.63;;;12.27;;
19919;SDS011;10122;50.074;19.920;2023-05-07T02:07:01;19.73;;;13.00;;
19919;SDS011;10122;50.074;19.920;2023-05-07T02:09:27;15.77;;;10.48;;
19919;SDS011;10122;50.074;19.920;2023-05-07T02:11:53;18.67;;;11.48;;
19919;SDS011;10122;50.074;19.920;2023-05-07T02:14:19;17.98;;;10.23;;
19919;SDS011;10122;50.074;19.920;2023-05-07T02:16:45;15.05;;;9.35;;
19919;SDS011;10122;50.074;19.920;2023-05-07T02:19:11;14.85;;;9.57;;
19919;SDS011;10122;50.074;19.920;2023-05-07T02:21:37;13.40;;;9.52;;
19919;SDS011;10122;50.074;19.920;2023-05-07T02:24:04;14.75;;;9.27;;
19919;SDS011;10122;50.074;19.920;2023-05-07T02:26:30;13.27;;;9.00;;
19919;SDS011;10122;50.074;19.920;2023-05-07T02:28:56;15.35;;;9.85;;
19919;SDS011;10122;50.074;19.920;2023-05-07T02:31:22;15.00;;;9.50;;
19919;SDS011;10122;50.074;19.920;2023-05-07T02:33:48;17.35;;;9.07;;
19919;SDS011;10122;50.074;19.920;2023-05-07T02:36:14;12.82;;;9.18;;
19919;SDS011;10122;50.074;19.920;2023-05-07T02:38:40;14.00;;;9.10;;
19919;SDS011;10122;50.074;19.920;2023-05-07T02:41:07;12.85;;;9.35;;
19919;SDS011;10122;50.074;19.920;2023-05-07T02:43:33;14.85;;;9.52;;
19919;SDS011;10122;50.074;19.920;2023-05-07T02:46:02;11.60;;;8.48;;
19919;SDS011;10122;50.074;19.920;2023-05-07T02:48:28;11.55;;;7.93;;
19919;SDS011;10122;50.074;19.920;2023-05-07T02:50:54;13.57;;;9.00;;
19919;SDS011;10122;50.074;19.920;2023-05-07T02:53:20;11.23;;;8.23;;
19919;SDS011;10122;50.074;19.920;2023-05-07T02:55:47;11.60;;;8.10;;
19919;SDS011;10122;50.074;19.920;2023-05-07T02:58:13;11.13;;;8.02;;
19919;SDS011;10122;50.074;19.920;2023-05-07T03:00:39;9.30;;;7.45;;
19919;SDS011;10122;50.074;19.920;2023-05-07T03:03:05;10.45;;;7.45;;
19919;SDS011;10122;50.074;19.920;2023-05-07T03:05:31;10.68;;;6.45;;
19919;SDS011;10122;50.074;19.920;2023-05-07T03:07:57;10.68;;;7.15;;
19919;SDS011;10122;50.074;19.920;2023-05-07T03:10:23;8.18;;;6.18;;
19919;SDS011;10122;50.074;19.920;2023-05-07T03:12:49;8.43;;;5.40;;
19919;SDS011;10122;50.074;19.920;2023-05-07T03:15:15;6.65;;;5.15;;
19919;SDS011;10122;50.074;19.920;2023-05-07T03:17:41;6.28;;;4.35;;
19919;SDS011;10122;50.074;19.920;2023-05-07T03:20:08;6.55;;;4.30;;
19919;SDS011;10122;50.074;19.920;2023-05-07T03:22:34;6.10;;;4.50;;
19919;SDS011;10122;50.074;19.920;2023-05-07T03:25:00;5.85;;;4.15;;
19919;SDS011;10122;50.074;19.920;2023-05-07T03:27:26;5.57;;;3.80;;
19919;SDS011;10122;50.074;19.920;2023-05-07T03:29:52;4.75;;;3.60;;
19919;SDS011;10122;50.074;19.920;2023-05-07T03:32:18;4.50;;;3.22;;
19919;SDS011;10122;50.074;19.920;2023-05-07T03:34:44;3.97;;;3.00;;
19919;SDS011;10122;50.074;19.920;2023-05-07T03:37:11;3.92;;;3.10;;
19919;SDS011;10122;50.074;19.920;2023-05-07T03:39:37;4.55;;;2.70;;
19919;SDS011;10122;50.074;19.920;2023-05-07T03:42:03;4.32;;;3.00;;
19919;SDS011;10122;50.074;19.920;2023-05-07T03:44:29;3.42;;;2.55;;
19919;SDS011;10122;50.074;19.920;2023-05-07T03:46:55;4.32;;;3.15;;
19919;SDS011;10122;50.074;19.920;2023-05-07T03:49:21;4.30;;;2.88;;
19919;SDS011;10122;50.074;19.920;2023-05-07T03:51:47;4.63;;;3.05;;
19919;SDS011;10122;50.074;19.920;2023-05-07T03:54:13;3.05;;;2.55;;
19919;SDS011;10122;50.074;19.920;2023-05-07T03:56:39;3.45;;;2.58;;
19919;SDS011;10122;50.074;19.920;2023-05-07T03:59:05;4.43;;;2.85;;
19919;SDS011;10122;50.074;19.920;2023-05-07T04:01:31;3.00;;;2.60;;
19919;SDS011;10122;50.074;19.920;2023-05-07T04:03:57;4.40;;;2.58;;
19919;SDS011;10122;50.074;19.920;2023-05-07T04:06:23;3.92;;;2.50;;
19919;SDS011;10122;50.074;19.920;2023-05-07T04:08:50;3.60;;;2.67;;
19919;SDS011;10122;50.074;19.920;2023-05-07T04:11:16;2.72;;;2.22;;
19919;SDS011;10122;50.074;19.920;2023-05-07T04:13:42;3.15;;;2.42;;
19919;SDS011;10122;50.074;19.920;2023-05-07T04:16:08;3.60;;;2.47;;
19919;SDS011;10122;50.074;19.920;2023-05-07T04:18:34;2.85;;;2.30;;
19919;SDS011;10122;50.074;19.920;2023-05-07T04:21:00;3.67;;;2.80;;
19919;SDS011;10122;50.074;19.920;2023-05-07T04:23:26;3.20;;;2.30;;
19919;SDS011;10122;50.074;19.920;2023-05-07T04:25:52;2.70;;;2.30;;
19919;SDS011;10122;50.074;19.920;2023-05-07T04:28:19;3.95;;;2.75;;
19919;SDS011;10122;50.074;19.920;2023-05-07T04:30:45;3.10;;;2.55;;
19919;SDS011;10122;50.074;19.920;2023-05-07T04:33:11;4.07;;;2.47;;
19919;SDS011;10122;50.074;19.920;2023-05-07T04:35:41;3.40;;;2.42;;
19919;SDS011;10122;50.074;19.920;2023-05-07T04:38:08;2.92;;;2.42;;
19919;SDS011;10122;50.074;19.920;2023-05-07T04:40:35;2.75;;;2.03;;
19919;SDS011;10122;50.074;19.920;2023-05-07T04:43:01;4.47;;;2.75;;
19919;SDS011;10122;50.074;19.920;2023-05-07T04:45:27;2.65;;;2.15;;
19919;SDS011;10122;50.074;19.920;2023-05-07T04:47:53;3.45;;;2.42;;
19919;SDS011;10122;50.074;19.920;2023-05-07T04:50:19;2.90;;;2.38;;
19919;SDS011;10122;50.074;19.920;2023-05-07T04:52:48;3.33;;;2.40;;
19919;SDS011;10122;50.074;19.920;2023-05-07T04:55:14;3.45;;;2.45;;
19919;SDS011;10122;50.074;19.920;2023-05-07T04:57:40;5.60;;;2.40;;
19919;SDS011;10122;50.074;19.920;2023-05-07T05:00:07;3.10;;;2.10;;
19919;SDS011;10122;50.074;19.920;2023-05-07T05:02:39;5.15;;;2.60;;
19919;SDS011;10122;50.074;19.920;2023-05-07T05:05:05;5.05;;;2.15;;
19919;SDS011;10122;50.074;19.920;2023-05-07T05:07:31;2.92;;;2.20;;
19919;SDS011;10122;50.074;19.920;2023-05-07T05:09:58;3.47;;;2.22;;
19919;SDS011;10122;50.074;19.920;2023-05-07T05:12:24;2.60;;;1.90;;
19919;SDS011;10122;50.074;19.920;2023-05-07T05:14:50;3.17;;;2.08;;
19919;SDS011;10122;50.074;19.920;2023-05-07T05:17:16;4.72;;;2.30;;
19919;SDS011;10122;50.074;19.920;2023-05-07T05:19:42;5.18;;;2.30;;
19919;SDS011;10122;50.074;19.920;2023-05-07T05:22:08;2.85;;;2.10;;
19919;SDS011;10122;50.074;19.920;2023-05-07T05:24:34;3.55;;;2.30;;
19919;SDS011;10122;50.074;19.920;2023-05-07T05:27:00;3.22;;;2.28;;
19919;SDS011;10122;50.074;19.920;2023-05-07T05:29:27;3.95;;;2.28;;
19919;SDS011;10122;50.074;19.920;2023-05-07T05:31:53;2.80;;;2.30;;
19919;SDS011;10122;50.074;19.920;2023-05-07T05:34:19;2.90;;;2.20;;
19919;SDS011;10122;50.074;19.920;2023-05-07T05:36:46;3.53;;;2.20;;
19919;SDS011;10122;50.074;19.920;2023-05-07T05:39:12;4.30;;;2.22;;
19919;SDS011;10122;50.074;19.920;2023-05-07T05:41:39;2.45;;;1.88;;
19919;SDS011;10122;50.074;19.920;2023-05-07T05:44:05;3.15;;;2.03;;
19919;SDS011;10122;50.074;19.920;2023-05-07T05:46:31;2.67;;;1.95;;
19919;SDS011;10122;50.074;19.920;2023-05-07T05:48:57;1.63;;;1.52;;
19919;SDS011;10122;50.074;19.920;2023-05-07T05:51:23;2.45;;;1.90;;
19919;SDS011;10122;50.074;19.920;2023-05-07T05:53:49;3.47;;;1.90;;
19919;SDS011;10122;50.074;19.920;2023-05-07T05:56:15;3.88;;;2.33;;
19919;SDS011;10122;50.074;19.920;2023-05-07T05:58:41;2.88;;;1.95;;
19919;SDS011;10122;50.074;19.920;2023-05-07T06:01:07;3.65;;;2.20;;
19919;SDS011;10122;50.074;19.920;2023-05-07T06:03:34;1.73;;;1.55;;
19919;SDS011;10122;50.074;19.920;2023-05-07T06:06:00;3.95;;;2.15;;
19919;SDS011;10122;50.074;19.920;2023-05-07T06:08:29;3.80;;;2.40;;
19919;SDS011;10122;50.074;19.920;2023-05-07T06:10:55;3.10;;;1.98;;
19919;SDS011;10122;50.074;19.920;2023-05-07T06:13:22;3.25;;;2.00;;
19919;SDS011;10122;50.074;19.920;2023-05-07T06:15:48;3.67;;;2.30;;
19919;SDS011;10122;50.074;19.920;2023-05-07T06:18:14;3.03;;;2.03;;
19919;SDS011;10122;50.074;19.920;2023-05-07T06:20:41;3.58;;;2.20;;
19919;SDS011;10122;50.074;19.920;2023-05-07T06:23:07;4.22;;;2.28;;
19919;SDS011;10122;50.074;19.920;2023-05-07T06:25:33;3.25;;;2.20;;
19919;SDS011;10122;50.074;19.920;2023-05-07T06:27:59;3.97;;;2.53;;
19919;SDS011;10122;50.074;19.920;2023-05-07T06:30:25;4.57;;;2.45;;
19919;SDS011;10122;50.074;19.920;2023-05-07T06:32:51;3.13;;;2.17;;
19919;SDS011;10122;50.074;19.920;2023-05-07T06:35:17;2.85;;;2.22;;
19919;SDS011;10122;50.074;19.920;2023-05-07T06:37:44;2.38;;;1.92;;
19919;SDS011;10122;50.074;19.920;2023-05-07T06:40:11;3.42;;;2.22;;
19919;SDS011;10122;50.074;19.920;2023-05-07T06:42:37;3.08;;;2.33;;
19919;SDS011;10122;50.074;19.920;2023-05-07T06:45:04;3.08;;;2.20;;
19919;SDS011;10122;50.074;19.920;2023-05-07T06:47:30;2.83;;;2.05;;
19919;SDS011;10122;50.074;19.920;2023-05-07T06:49:56;3.95;;;2.60;;
19919;SDS011;10122;50.074;19.920;2023-05-07T06:52:22;4.00;;;2.30;;
19919;SDS011;10122;50.074;19.920;2023-05-07T06:54:48;3.42;;;2.30;;
19919;SDS011;10122;50.074;19.920;2023-05-07T06:57:14;3.55;;;2.50;;
19919;SDS011;10122;50.074;19.920;2023-05-07T06:59:40;3.30;;;2.00;;
19919;SDS011;10122;50.074;19.920;2023-05-07T07:02:06;3.33;;;2.28;;
19919;SDS011;10122;50.074;19.920;2023-05-07T07:04:33;3.22;;;2.22;;
19919;SDS011;10122;50.074;19.920;2023-05-07T07:06:59;3.63;;;2.10;;
19919;SDS011;10122;50.074;19.920;2023-05-07T07:09:25;3.78;;;2.00;;
19919;SDS011;10122;50.074;19.920;2023-05-07T07:11:51;2.92;;;2.00;;
19919;SDS011;10122;50.074;19.920;2023-05-07T07:14:17;3.03;;;2.13;;
19919;SDS011;10122;50.074;19.920;2023-05-07T07:16:43;3.83;;;2.30;;
19919;SDS011;10122;50.074;19.920;2023-05-07T07:19:09;3.92;;;2.78;;
19919;SDS011;10122;50.074;19.920;2023-05-07T07:21:35;3.13;;;2.60;;
19919;SDS011;10122;50.074;19.920;2023-05-07T07:24:01;3.88;;;2.75;;
19919;SDS011;10122;50.074;19.920;2023-05-07T07:26:27;3.28;;;2.50;;
19919;SDS011;10122;50.074;19.920;2023-05-07T07:28:53;2.50;;;2.30;;
19919;SDS011;10122;50.074;19.920;2023-05-07T07:31:19;2.58;;;2.10;;
19919;SDS011;10122;50.074;19.920;2023-05-07T07:33:45;5.22;;;2.40;;
19919;SDS011;10122;50.074;19.920;2023-05-07T07:36:12;1.90;;;1.70;;
19919;SDS011;10122;50.074;19.920;2023-05-07T07:38:38;3.22;;;2.40;;
19919;SDS011;10122;50.074;19.920;2023-05-07T07:41:04;2.63;;;2.03;;
19919;SDS011;10122;50.074;19.920;2023-05-07T07:43:30;2.47;;;2.00;;
19919;SDS011;10122;50.074;19.920;2023-05-07T07:45:56;4.22;;;2.30;;
19919;SDS011;10122;50.074;19.920;2023-05-07T07:48:22;3.03;;;2.00;;
19919;SDS011;10122;50.074;19.920;2023-05-07T07:50:48;2.80;;;2.20;;
19919;SDS011;10122;50.074;19.920;2023-05-07T07:53:16;2.15;;;1.75;;
19919;SDS011;10122;50.074;19.920;2023-05-07T07:55:42;4.47;;;2.50;;
19919;SDS011;10122;50.074;19.920;2023-05-07T07:58:08;3.25;;;2.55;;
19919;SDS011;10122;50.074;19.920;2023-05-07T08:00:34;3.83;;;2.72;;
19919;SDS011;10122;50.074;19.920;2023-05-07T08:03:00;2.75;;;2.30;;
19919;SDS011;10122;50.074;19.920;2023-05-07T08:05:28;4.32;;;2.88;;
19919;SDS011;10122;50.074;19.920;2023-05-07T08:07:54;4.82;;;3.00;;
19919;SDS011;10122;50.074;19.920;2023-05-07T08:10:21;3.33;;;2.80;;
19919;SDS011;10122;50.074;19.920;2023-05-07T08:12:50;4.30;;;2.75;;
19919;SDS011;10122;50.074;19.920;2023-05-07T08:15:16;3.35;;;2.75;;
19919;SDS011;10122;50.074;19.920;2023-05-07T08:17:43;3.15;;;2.53;;
19919;SDS011;10122;50.074;19.920;2023-05-07T08:20:09;4.03;;;2.90;;
19919;SDS011;10122;50.074;19.920;2023-05-07T08:22:36;4.53;;;3.03;;
19919;SDS011;10122;50.074;19.920;2023-05-07T08:25:02;4.45;;;2.97;;
19919;SDS011;10122;50.074;19.920;2023-05-07T08:27:28;5.55;;;3.60;;
19919;SDS011;10122;50.074;19.920;2023-05-07T08:29:54;5.95;;;3.60;;
19919;SDS011;10122;50.074;19.920;2023-05-07T08:32:20;4.70;;;3.65;;
19919;SDS011;10122;50.074;19.920;2023-05-07T08:34:47;5.25;;;4.15;;
19919;SDS011;10122;50.074;19.920;2023-05-07T08:37:13;5.07;;;4.10;;
19919;SDS011;10122;50.074;19.920;2023-05-07T08:39:39;5.90;;;4.30;;
19919;SDS011;10122;50.074;19.920;2023-05-07T08:42:05;5.85;;;3.97;;
19919;SDS011;10122;50.074;19.920;2023-05-07T08:44:33;5.50;;;4.13;;
19919;SDS011;10122;50.074;19.920;2023-05-07T08:47:02;5.63;;;4.40;;
19919;SDS011;10122;50.074;19.920;2023-05-07T08:49:31;5.57;;;4.47;;
19919;SDS011;10122;50.074;19.920;2023-05-07T08:51:59;6.43;;;5.20;;
19919;SDS011;10122;50.074;19.920;2023-05-07T08:54:25;5.28;;;4.00;;
19919;SDS011;10122;50.074;19.920;2023-05-07T08:56:51;6.28;;;4.43;;
19919;SDS011;10122;50.074;19.920;2023-05-07T08:59:17;7.13;;;5.15;;
19919;SDS011;10122;50.074;19.920;2023-05-07T09:01:43;8.90;;;5.22;;
19919;SDS011;10122;50.074;19.920;2023-05-07T09:04:09;5.93;;;4.47;;
19919;SDS011;10122;50.074;19.920;2023-05-07T09:06:37;5.07;;;4.32;;
19919;SDS011;10122;50.074;19.920;2023-05-07T09:09:06;6.55;;;4.55;;
19919;SDS011;10122;50.074;19.920;2023-05-07T09:11:33;5.93;;;4.70;;
19919;SDS011;10122;50.074;19.920;2023-05-07T09:13:59;6.45;;;4.55;;
19919;SDS011;10122;50.074;19.920;2023-05-07T09:16:29;6.10;;;4.10;;
19919;SDS011;10122;50.074;19.920;2023-05-07T09:18:57;4.85;;;3.90;;
19919;SDS011;10122;50.074;19.920;2023-05-07T09:21:23;5.25;;;3.17;;
19919;SDS011;10122;50.074;19.920;2023-05-07T09:23:53;3.78;;;2.95;;
19919;SDS011;10122;50.074;19.920;2023-05-07T09:26:23;4.55;;;3.45;;
19919;SDS011;10122;50.074;19.920;2023-05-07T09:28:49;4.38;;;3.40;;
19919;SDS011;10122;50.074;19.920;2023-05-07T09:31:15;5.00;;;3.33;;
19919;SDS011;10122;50.074;19.920;2023-05-07T09:33:41;5.78;;;3.30;;
19919;SDS011;10122;50.074;19.920;2023-05-07T09:36:08;5.18;;;3.40;;
19919;SDS011;10122;50.074;19.920;2023-05-07T09:38:35;3.72;;;2.97;;
19919;SDS011;10122;50.074;19.920;2023-05-07T09:41:02;4.97;;;3.60;;
19919;SDS011;10122;50.074;19.920;2023-05-07T09:43:31;4.63;;;3.40;;
19919;SDS011;10122;50.074;19.920;2023-05-07T09:45:59;4.10;;;3.30;;
19919;SDS011;10122;50.074;19.920;2023-05-07T09:48:28;4.88;;;3.50;;
19919;SDS011;10122;50.074;19.920;2023-05-07T09:50:55;5.70;;;3.38;;
19919;SDS011;10122;50.074;19.920;2023-05-07T09:53:23;4.28;;;3.28;;
19919;SDS011;10122;50.074;19.920;2023-05-07T09:55:50;5.43;;;3.20;;
19919;SDS011;10122;50.074;19.920;2023-05-07T09:58:16;3.95;;;3.15;;
19919;SDS011;10122;50.074;19.920;2023-05-07T10:00:43;5.68;;;3.60;;
19919;SDS011;10122;50.074;19.920;2023-05-07T10:03:10;6.07;;;3.38;;
19919;SDS011;10122;50.074;19.920;2023-05-07T10:05:36;4.93;;;3.47;;
19919;SDS011;10122;50.074;19.920;2023-05-07T10:08:03;4.63;;;3.20;;
19919;SDS011;10122;50.074;19.920;2023-05-07T10:10:29;4.72;;;3.33;;
19919;SDS011;10122;50.074;19.920;2023-05-07T10:12:56;4.57;;;3.50;;
19919;SDS011;10122;50.074;19.920;2023-05-07T10:15:22;4.65;;;3.30;;
19919;SDS011;10122;50.074;19.920;2023-05-07T10:17:49;4.68;;;3.13;;
19919;SDS011;10122;50.074;19.920;2023-05-07T10:20:17;4.70;;;3.42;;
19919;SDS011;10122;50.074;19.920;2023-05-07T10:22:44;3.88;;;2.92;;
19919;SDS011;10122;50.074;19.920;2023-05-07T10:25:28;4.72;;;3.22;;
19919;SDS011;10122;50.074;19.920;2023-05-07T10:27:56;5.22;;;4.00;;
19919;SDS011;10122;50.074;19.920;2023-05-07T10:33:08;4.88;;;3.58;;
19919;SDS011;10122;50.074;19.920;2023-05-07T10:35:40;7.03;;;3.72;;
19919;SDS011;10122;50.074;19.920;2023-05-07T10:38:07;5.55;;;3.67;;
19919;SDS011;10122;50.074;19.920;2023-05-07T10:40:33;5.28;;;3.50;;
19919;SDS011;10122;50.074;19.920;2023-05-07T10:43:01;4.97;;;3.75;;
19919;SDS011;10122;50.074;19.920;2023-05-07T10:45:29;4.80;;;3.85;;
19919;SDS011;10122;50.074;19.920;2023-05-07T10:50:34;5.32;;;3.90;;
19919;SDS011;10122;50.074;19.920;2023-05-07T10:53:22;4.75;;;3.95;;
19919;SDS011;10122;50.074;19.920;2023-05-07T10:56:24;4.93;;;3.83;;
19919;SDS011;10122;50.074;19.920;2023-05-07T10:58:38;6.47;;;3.50;;
19919;SDS011;10122;50.074;19.920;2023-05-07T11:01:04;6.00;;;3.53;;
19919;SDS011;10122;50.074;19.920;2023-05-07T11:03:30;4.55;;;3.47;;
19919;SDS011;10122;50.074;19.920;2023-05-07T11:06:17;6.10;;;3.38;;
19919;SDS011;10122;50.074;19.920;2023-05-07T11:09:03;4.18;;;3.35;;
19919;SDS011;10122;50.074;19.920;2023-05-07T11:11:47;5.07;;;3.80;;
19919;SDS011;10122;50.074;19.920;2023-05-07T11:15:01;4.10;;;3.60;;
19919;SDS011;10122;50.074;19.920;2023-05-07T11:17:02;5.15;;;3.83;;
19919;SDS011;10122;50.074;19.920;2023-05-07T11:19:51;5.43;;;3.58;;
19919;SDS011;10122;50.074;19.920;2023-05-07T11:25:17;3.90;;;3.50;;
19919;SDS011;10122;50.074;19.920;2023-05-07T11:27:46;4.60;;;3.10;;
19919;SDS011;10122;50.074;19.920;2023-05-07T11:30:19;5.43;;;3.20;;
19919;SDS011;10122;50.074;19.920;2023-05-07T11:32:46;4.78;;;3.38;;
19919;SDS011;10122;50.074;19.920;2023-05-07T11:35:13;3.40;;;3.10;;
19919;SDS011;10122;50.074;19.920;2023-05-07T11:37:41;4.15;;;3.08;;
19919;SDS011;10122;50.074;19.920;2023-05-07T11:40:08;3.70;;;2.70;;
19919;SDS011;10122;50.074;19.920;2023-05-07T11:42:39;4.15;;;3.22;;
19919;SDS011;10122;50.074;19.920;2023-05-07T11:45:06;3.30;;;2.80;;
19919;SDS011;10122;50.074;19.920;2023-05-07T11:47:33;3.42;;;2.80;;
19919;SDS011;10122;50.074;19.920;2023-05-07T11:50:06;2.95;;;2.50;;
19919;SDS011;10122;50.074;19.920;2023-05-07T11:52:32;4.00;;;2.80;;
19919;SDS011;10122;50.074;19.920;2023-05-07T11:54:59;3.30;;;2.65;;
19919;SDS011;10122;50.074;19.920;2023-05-07T11:57:26;3.30;;;2.50;;
19919;SDS011;10122;50.074;19.920;2023-05-07T11:59:57;3.00;;;2.50;;
19919;SDS011;10122;50.074;19.920;2023-05-07T12:02:23;2.90;;;2.00;;
19919;SDS011;10122;50.074;19.920;2023-05-07T12:04:53;4.18;;;2.85;;
19919;SDS011;10122;50.074;19.920;2023-05-07T12:07:19;3.22;;;2.70;;
19919;SDS011;10122;50.074;19.920;2023-05-07T12:09:46;3.22;;;2.55;;
19919;SDS011;10122;50.074;19.920;2023-05-07T12:12:12;2.78;;;2.08;;
19919;SDS011;10122;50.074;19.920;2023-05-07T12:14:43;3.40;;;2.60;;
19919;SDS011;10122;50.074;19.920;2023-05-07T12:17:09;3.67;;;2.63;;
19919;SDS011;10122;50.074;19.920;2023-05-07T12:19:36;3.30;;;2.50;;
19919;SDS011;10122;50.074;19.920;2023-05-07T12:22:02;4.00;;;2.47;;
19919;SDS011;10122;50.074;19.920;2023-05-07T12:24:29;3.40;;;2.50;;
19919;SDS011;10122;50.074;19.920;2023-05-07T12:26:55;2.45;;;2.03;;
19919;SDS011;10122;50.074;19.920;2023-05-07T12:29:21;4.05;;;2.33;;
19919;SDS011;10122;50.074;19.920;2023-05-07T12:31:48;4.18;;;2.60;;
19919;SDS011;10122;50.074;19.920;2023-05-07T12:34:15;2.95;;;1.90;;
19919;SDS011;10122;50.074;19.920;2023-05-07T12:36:41;3.97;;;2.67;;
19919;SDS011;10122;50.074;19.920;2023-05-07T12:39:08;3.22;;;2.70;;
19919;SDS011;10122;50.074;19.920;2023-05-07T12:44:21;3.38;;;2.72;;
19919;SDS011;10122;50.074;19.920;2023-05-07T12:46:47;3.80;;;2.88;;
19919;SDS011;10122;50.074;19.920;2023-05-07T12:49:13;3.20;;;2.78;;
19919;SDS011;10122;50.074;19.920;2023-05-07T12:51:39;4.50;;;2.83;;
19919;SDS011;10122;50.074;19.920;2023-05-07T12:54:05;3.88;;;2.63;;
19919;SDS011;10122;50.074;19.920;2023-05-07T12:56:31;3.15;;;2.33;;
19919;SDS011;10122;50.074;19.920;2023-05-07T12:58:57;3.80;;;2.65;;
19919;SDS011;10122;50.074;19.920;2023-05-07T13:01:28;2.80;;;2.17;;
19919;SDS011;10122;50.074;19.920;2023-05-07T13:03:54;3.22;;;2.50;;
19919;SDS011;10122;50.074;19.920;2023-05-07T13:06:20;3.80;;;2.80;;
19919;SDS011;10122;50.074;19.920;2023-05-07T13:08:47;3.92;;;2.90;;
19919;SDS011;10122;50.074;19.920;2023-05-07T13:11:13;3.72;;;2.92;;
19919;SDS011;10122;50.074;19.920;2023-05-07T13:13:39;3.60;;;2.42;;
19919;SDS011;10122;50.074;19.920;2023-05-07T13:16:07;4.07;;;2.88;;
19919;SDS011;10122;50.074;19.920;2023-05-07T13:18:33;3.15;;;2.20;;
19919;SDS011;10122;50.074;19.920;2023-05-07T13:21:00;3.85;;;2.50;;
19919;SDS011;10122;50.074;19.920;2023-05-07T13:23:26;4.28;;;3.10;;
19919;SDS011;10122;50.074;19.920;2023-05-07T13:25:53;3.85;;;2.80;;
19919;SDS011;10122;50.074;19.920;2023-05-07T13:28:19;2.85;;;2.35;;
19919;SDS011;10122;50.074;19.920;2023-05-07T13:30:46;5.00;;;3.08;;
19919;SDS011;10122;50.074;19.920;2023-05-07T13:33:12;3.65;;;2.83;;
19919;SDS011;10122;50.074;19.920;2023-05-07T13:35:39;2.20;;;1.65;;
19919;SDS011;10122;50.074;19.920;2023-05-07T13:38:05;4.65;;;3.08;;
19919;SDS011;10122;50.074;19.920;2023-05-07T13:40:31;3.80;;;3.10;;
19919;SDS011;10122;50.074;19.920;2023-05-07T13:42:57;3.47;;;2.45;;
19919;SDS011;10122;50.074;19.920;2023-05-07T13:45:24;4.32;;;2.40;;
19919;SDS011;10122;50.074;19.920;2023-05-07T13:47:51;3.50;;;2.55;;
19919;SDS011;10122;50.074;19.920;2023-05-07T13:50:17;3.50;;;2.63;;
19919;SDS011;10122;50.074;19.920;2023-05-07T13:52:43;3.92;;;2.85;;
19919;SDS011;10122;50.074;19.920;2023-05-07T13:55:15;3.38;;;2.88;;
19919;SDS011;10122;50.074;19.920;2023-05-07T13:57:42;5.05;;;2.95;;
19919;SDS011;10122;50.074;19.920;2023-05-07T14:00:08;4.47;;;3.05;;
19919;SDS011;10122;50.074;19.920;2023-05-07T14:02:34;4.35;;;2.70;;
19919;SDS011;10122;50.074;19.920;2023-05-07T14:05:00;3.38;;;3.08;;
19919;SDS011;10122;50.074;19.920;2023-05-07T14:07:26;4.40;;;3.22;;
19919;SDS011;10122;50.074;19.920;2023-05-07T14:09:53;4.40;;;3.03;;
19919;SDS011;10122;50.074;19.920;2023-05-07T14:12:19;4.13;;;3.50;;
19919;SDS011;10122;50.074;19.920;2023-05-07T14:14:45;4.28;;;3.20;;
19919;SDS011;10122;50.074;19.920;2023-05-07T14:17:12;3.88;;;3.40;;
19919;SDS011;10122;50.074;19.920;2023-05-07T14:19:38;4.50;;;3.53;;
19919;SDS011;10122;50.074;19.920;2023-05-07T14:22:04;5.03;;;3.42;;
19919;SDS011;10122;50.074;19.920;2023-05-07T14:24:30;3.47;;;2.50;;
19919;SDS011;10122;50.074;19.920;2023-05-07T14:26:56;5.60;;;3.90;;
19919;SDS011;10122;50.074;19.920;2023-05-07T14:29:22;3.92;;;3.17;;
19919;SDS011;10122;50.074;19.920;2023-05-07T14:31:48;4.30;;;3.42;;
19919;SDS011;10122;50.074;19.920;2023-05-07T14:34:15;5.50;;;2.35;;
19919;SDS011;10122;50.074;19.920;2023-05-07T14:36:41;5.60;;;3.55;;
19919;SDS011;10122;50.074;19.920;2023-05-07T14:39:07;4.60;;;3.50;;